sensor_id;sensor_type;location;lat;lon;timestamp;P1;durP1;ratioP1;P2;durP2;ratioP2
12597;SDS011;6364;53.590;9.956;2023-05-19T00:00:56;13.45;;;5.65;;
12597;SDS011;6364;53.590;9.956;2023-05-19T00:03:23;12.98;;;4.88;;
12597;SDS011;6364;53.590;9.956;2023-05-19T00:05:48;8.90;;;4.95;;
12597;SDS011;6364;53.590;9.956;2023-05-19T00:08:18;16.58;;;6.40;;
12597;SDS011;6364;53.590;9.956;2023-05-19T00:10:44;11.30;;;5.20;;
12597;SDS011;6364;53.590;9.956;2023-05-19T00:13:09;14.23;;;5.25;;
12597;SDS011;6364;53.590;9.956;2023-05-19T00:15:35;12.80;;;5.90;;
12597;SDS011;6364;53.590;9.956;2023-05-19T00:18:00;12.32;;;5.38;;
12597;SDS011;6364;53.590;9.956;2023-05-19T00:20:26;9.07;;;4.75;;
12597;SDS011;6364;53.590;9.956;2023-05-19T00:22:51;12.27;;;5.40;;
12597;SDS011;6364;53.590;9.956;2023-05-19T00:25:17;17.33;;;6.05;;
12597;SDS011;6364;53.590;9.956;2023-05-19T00:27:42;14.63;;;5.47;;
12597;SDS011;6364;53.590;9.956;2023-05-19T00:30:08;17.05;;;5.85;;
12597;SDS011;6364;53.590;9.956;2023-05-19T00:32:33;14.65;;;5.57;;
12597;SDS011;6364;53.590;9.956;2023-05-19T00:34:58;10.00;;;5.22;;
12597;SDS011;6364;53.590;9.956;2023-05-19T00:37:24;12.57;;;5.55;;
12597;SDS011;6364;53.590;9.956;2023-05-19T00:39:49;9.02;;;5.20;;
12597;SDS011;6364;53.590;9.956;2023-05-19T00:42:15;10.93;;;5.82;;
12597;SDS011;6364;53.590;9.956;2023-05-19T00:44:40;14.48;;;5.65;;
12597;SDS011;6364;53.590;9.956;2023-05-19T00:47:06;12.38;;;6.00;;
12597;SDS011;6364;53.590;9.956;2023-05-19T00:49:34;14.40;;;5.55;;
12597;SDS011;6364;53.590;9.956;2023-05-19T00:52:00;14.07;;;5.43;;
12597;SDS011;6364;53.590;9.956;2023-05-19T00:54:25;12.82;;;5.72;;
12597;SDS011;6364;53.590;9.956;2023-05-19T00:56:52;9.73;;;4.88;;
12597;SDS011;6364;53.590;9.956;2023-05-19T00:59:18;10.10;;;4.80;;
12597;SDS011;6364;53.590;9.956;2023-05-19T01:01:43;11.95;;;5.45;;
12597;SDS011;6364;53.590;9.956;2023-05-19T01:04:12;9.82;;;5.50;;
12597;SDS011;6364;53.590;9.956;2023-05-19T01:06:40;14.98;;;5.50;;
12597;SDS011;6364;53.590;9.956;2023-05-19T01:09:06;15.30;;;5.45;;
12597;SDS011;6364;53.590;9.956;2023-05-19T01:11:32;12.27;;;5.03;;
12597;SDS011;6364;53.590;9.956;2023-05-19T01:13:58;9.32;;;5.25;;
12597;SDS011;6364;53.590;9.956;2023-05-19T01:16:24;13.15;;;6.13;;
12597;SDS011;6364;53.590;9.956;2023-05-19T01:19:04;10.00;;;5.38;;
12597;SDS011;6364;53.590;9.956;2023-05-19T01:32:43;13.88;;;5.72;;
12597;SDS011;6364;53.590;9.956;2023-05-19T01:35:09;11.45;;;6.03;;
12597;SDS011;6364;53.590;9.956;2023-05-19T01:37:36;12.63;;;5.63;;
12597;SDS011;6364;53.590;9.956;2023-05-19T01:40:03;14.40;;;5.80;;
12597;SDS011;6364;53.590;9.956;2023-05-19T01:42:29;17.08;;;6.38;;
12597;SDS011;6364;53.590;9.956;2023-05-19T01:45:01;9.75;;;5.63;;
12597;SDS011;6364;53.590;9.956;2023-05-19T01:47:27;12.23;;;5.53;;
12597;SDS011;6364;53.590;9.956;2023-05-19T01:49:52;10.20;;;6.20;;
12597;SDS011;6364;53.590;9.956;2023-05-19T01:52:18;18.02;;;6.30;;
12597;SDS011;6364;53.590;9.956;2023-05-19T01:54:43;12.48;;;5.82;;
12597;SDS011;6364;53.590;9.956;2023-05-19T01:57:15;14.95;;;5.50;;
12597;SDS011;6364;53.590;9.956;2023-05-19T02:02:25;18.10;;;5.45;;
12597;SDS011;6364;53.590;9.956;2023-05-19T02:05:02;12.65;;;5.97;;
12597;SDS011;6364;53.590;9.956;2023-05-19T02:08:28;16.65;;;5.97;;
12597;SDS011;6364;53.590;9.956;2023-05-19T02:10:50;12.07;;;5.43;;
12597;SDS011;6364;53.590;9.956;2023-05-19T02:13:20;15.67;;;6.07;;
12597;SDS011;6364;53.590;9.956;2023-05-19T02:15:50;14.82;;;6.22;;
12597;SDS011;6364;53.590;9.956;2023-05-19T02:18:16;10.90;;;5.85;;
12597;SDS011;6364;53.590;9.956;2023-05-19T02:20:44;14.10;;;6.28;;
12597;SDS011;6364;53.590;9.956;2023-05-19T02:23:09;14.55;;;5.65;;
12597;SDS011;6364;53.590;9.956;2023-05-19T02:25:34;13.90;;;6.13;;
12597;SDS011;6364;53.590;9.956;2023-05-19T02:28:00;16.05;;;6.43;;
12597;SDS011;6364;53.590;9.956;2023-05-19T02:30:25;14.85;;;6.50;;
12597;SDS011;6364;53.590;9.956;2023-05-19T02:32:50;18.58;;;6.20;;
12597;SDS011;6364;53.590;9.956;2023-05-19T02:35:18;13.25;;;6.72;;
12597;SDS011;6364;53.590;9.956;2023-05-19T02:37:43;14.20;;;6.13;;
12597;SDS011;6364;53.590;9.956;2023-05-19T02:40:08;15.23;;;6.35;;
12597;SDS011;6364;53.590;9.956;2023-05-19T02:42:34;11.48;;;5.97;;
12597;SDS011;6364;53.590;9.956;2023-05-19T02:45:00;13.15;;;6.22;;
12597;SDS011;6364;53.590;9.956;2023-05-19T02:47:25;14.05;;;6.32;;
12597;SDS011;6364;53.590;9.956;2023-05-19T02:49:50;14.73;;;5.93;;
12597;SDS011;6364;53.590;9.956;2023-05-19T02:52:16;12.85;;;6.00;;
12597;SDS011;6364;53.590;9.956;2023-05-19T02:54:41;12.73;;;6.65;;
12597;SDS011;6364;53.590;9.956;2023-05-19T02:57:06;12.02;;;6.35;;
12597;SDS011;6364;53.590;9.956;2023-05-19T02:59:32;14.35;;;6.22;;
12597;SDS011;6364;53.590;9.956;2023-05-19T03:01:58;13.82;;;6.55;;
12597;SDS011;6364;53.590;9.956;2023-05-19T03:04:25;12.40;;;6.63;;
12597;SDS011;6364;53.590;9.956;2023-05-19T03:06:50;12.32;;;6.70;;
12597;SDS011;6364;53.590;9.956;2023-05-19T03:09:15;14.45;;;6.45;;
12597;SDS011;6364;53.590;9.956;2023-05-19T03:11:41;12.48;;;6.20;;
12597;SDS011;6364;53.590;9.956;2023-05-19T03:14:06;18.42;;;6.60;;
12597;SDS011;6364;53.590;9.956;2023-05-19T03:16:33;18.25;;;6.28;;
12597;SDS011;6364;53.590;9.956;2023-05-19T03:18:59;12.63;;;6.25;;
12597;SDS011;6364;53.590;9.956;2023-05-19T03:21:24;13.57;;;6.50;;
12597;SDS011;6364;53.590;9.956;2023-05-19T03:23:49;23.77;;;6.50;;
12597;SDS011;6364;53.590;9.956;2023-05-19T03:26:15;13.05;;;6.47;;
12597;SDS011;6364;53.590;9.956;2023-05-19T03:28:40;12.05;;;6.63;;
12597;SDS011;6364;53.590;9.956;2023-05-19T03:31:05;18.70;;;6.85;;
12597;SDS011;6364;53.590;9.956;2023-05-19T03:33:31;12.73;;;6.60;;
12597;SDS011;6364;53.590;9.956;2023-05-19T03:35:56;17.60;;;7.10;;
12597;SDS011;6364;53.590;9.956;2023-05-19T03:38:21;16.70;;;6.55;;
12597;SDS011;6364;53.590;9.956;2023-05-19T03:40:47;17.52;;;6.78;;
12597;SDS011;6364;53.590;9.956;2023-05-19T03:43:12;12.18;;;6.15;;
12597;SDS011;6364;53.590;9.956;2023-05-19T03:45:38;14.98;;;6.88;;
12597;SDS011;6364;53.590;9.956;2023-05-19T03:48:03;14.73;;;7.00;;
12597;SDS011;6364;53.590;9.956;2023-05-19T03:50:29;16.58;;;6.25;;
12597;SDS011;6364;53.590;9.956;2023-05-19T03:52:55;16.00;;;6.88;;
12597;SDS011;6364;53.590;9.956;2023-05-19T03:55:21;11.13;;;6.13;;
12597;SDS011;6364;53.590;9.956;2023-05-19T03:57:46;12.68;;;6.60;;
12597;SDS011;6364;53.590;9.956;2023-05-19T04:00:12;14.63;;;6.72;;
12597;SDS011;6364;53.590;9.956;2023-05-19T04:02:38;10.10;;;6.00;;
12597;SDS011;6364;53.590;9.956;2023-05-19T04:05:04;15.35;;;6.47;;
12597;SDS011;6364;53.590;9.956;2023-05-19T04:07:30;15.68;;;6.80;;
12597;SDS011;6364;53.590;9.956;2023-05-19T04:09:55;10.30;;;6.15;;
12597;SDS011;6364;53.590;9.956;2023-05-19T04:12:21;20.27;;;6.32;;
12597;SDS011;6364;53.590;9.956;2023-05-19T04:14:46;15.30;;;6.85;;
12597;SDS011;6364;53.590;9.956;2023-05-19T04:17:12;11.65;;;6.82;;
12597;SDS011;6364;53.590;9.956;2023-05-19T04:19:37;10.90;;;5.60;;
12597;SDS011;6364;53.590;9.956;2023-05-19T04:22:02;12.63;;;6.28;;
12597;SDS011;6364;53.590;9.956;2023-05-19T04:24:28;15.93;;;6.85;;
12597;SDS011;6364;53.590;9.956;2023-05-19T04:26:53;12.68;;;6.03;;
12597;SDS011;6364;53.590;9.956;2023-05-19T04:29:18;14.95;;;6.93;;
12597;SDS011;6364;53.590;9.956;2023-05-19T04:31:44;16.05;;;6.88;;
12597;SDS011;6364;53.590;9.956;2023-05-19T04:34:09;19.15;;;6.47;;
12597;SDS011;6364;53.590;9.956;2023-05-19T04:36:35;14.57;;;6.50;;
12597;SDS011;6364;53.590;9.956;2023-05-19T04:39:01;17.75;;;6.78;;
12597;SDS011;6364;53.590;9.956;2023-05-19T04:41:30;18.38;;;6.88;;
12597;SDS011;6364;53.590;9.956;2023-05-19T04:43:55;18.55;;;6.90;;
12597;SDS011;6364;53.590;9.956;2023-05-19T04:46:21;17.17;;;6.78;;
12597;SDS011;6364;53.590;9.956;2023-05-19T04:48:48;19.83;;;6.85;;
12597;SDS011;6364;53.590;9.956;2023-05-19T04:51:14;14.15;;;6.68;;
12597;SDS011;6364;53.590;9.956;2023-05-19T04:53:40;12.27;;;6.45;;
12597;SDS011;6364;53.590;9.956;2023-05-19T04:56:06;18.08;;;6.47;;
12597;SDS011;6364;53.590;9.956;2023-05-19T04:58:31;12.55;;;6.68;;
12597;SDS011;6364;53.590;9.956;2023-05-19T05:00:57;24.85;;;7.47;;
12597;SDS011;6364;53.590;9.956;2023-05-19T05:03:22;17.70;;;6.40;;
12597;SDS011;6364;53.590;9.956;2023-05-19T05:05:48;11.38;;;6.38;;
12597;SDS011;6364;53.590;9.956;2023-05-19T05:08:13;14.15;;;6.35;;
12597;SDS011;6364;53.590;9.956;2023-05-19T05:10:40;15.55;;;6.88;;
12597;SDS011;6364;53.590;9.956;2023-05-19T05:13:06;12.13;;;6.35;;
12597;SDS011;6364;53.590;9.956;2023-05-19T05:15:31;14.60;;;7.10;;
12597;SDS011;6364;53.590;9.956;2023-05-19T05:17:57;12.38;;;5.88;;
12597;SDS011;6364;53.590;9.956;2023-05-19T05:20:22;17.25;;;6.35;;
12597;SDS011;6364;53.590;9.956;2023-05-19T05:22:48;14.68;;;6.35;;
12597;SDS011;6364;53.590;9.956;2023-05-19T05:25:14;13.95;;;5.80;;
12597;SDS011;6364;53.590;9.956;2023-05-19T05:27:40;14.55;;;6.30;;
12597;SDS011;6364;53.590;9.956;2023-05-19T05:30:05;12.80;;;6.22;;
12597;SDS011;6364;53.590;9.956;2023-05-19T05:32:31;11.32;;;6.10;;
12597;SDS011;6364;53.590;9.956;2023-05-19T05:34:57;15.68;;;6.15;;
12597;SDS011;6364;53.590;9.956;2023-05-19T05:37:22;12.20;;;5.95;;
12597;SDS011;6364;53.590;9.956;2023-05-19T05:39:47;12.30;;;5.85;;
12597;SDS011;6364;53.590;9.956;2023-05-19T05:42:13;13.02;;;6.43;;
12597;SDS011;6364;53.590;9.956;2023-05-19T05:44:38;14.25;;;5.63;;
12597;SDS011;6364;53.590;9.956;2023-05-19T05:47:03;15.10;;;6.38;;
12597;SDS011;6364;53.590;9.956;2023-05-19T05:49:29;16.42;;;6.65;;
12597;SDS011;6364;53.590;9.956;2023-05-19T05:51:55;16.48;;;6.38;;
12597;SDS011;6364;53.590;9.956;2023-05-19T05:54:20;15.30;;;5.53;;
12597;SDS011;6364;53.590;9.956;2023-05-19T05:56:47;12.48;;;5.63;;
12597;SDS011;6364;53.590;9.956;2023-05-19T05:59:13;13.43;;;5.88;;
12597;SDS011;6364;53.590;9.956;2023-05-19T06:01:38;14.90;;;5.82;;
12597;SDS011;6364;53.590;9.956;2023-05-19T06:04:04;14.02;;;5.78;;
12597;SDS011;6364;53.590;9.956;2023-05-19T06:06:29;16.23;;;5.60;;
12597;SDS011;6364;53.590;9.956;2023-05-19T06:08:55;11.07;;;5.53;;
12597;SDS011;6364;53.590;9.956;2023-05-19T06:11:20;16.10;;;5.80;;
12597;SDS011;6364;53.590;9.956;2023-05-19T06:13:45;14.85;;;5.32;;
12597;SDS011;6364;53.590;9.956;2023-05-19T06:16:11;13.73;;;5.07;;
12597;SDS011;6364;53.590;9.956;2023-05-19T06:18:36;16.77;;;5.38;;
12597;SDS011;6364;53.590;9.956;2023-05-19T06:21:01;14.50;;;5.40;;
12597;SDS011;6364;53.590;9.956;2023-05-19T06:23:28;12.82;;;4.90;;
12597;SDS011;6364;53.590;9.956;2023-05-19T06:25:56;14.07;;;5.03;;
12597;SDS011;6364;53.590;9.956;2023-05-19T06:28:22;10.98;;;4.65;;
12597;SDS011;6364;53.590;9.956;2023-05-19T06:30:47;12.70;;;5.07;;
12597;SDS011;6364;53.590;9.956;2023-05-19T06:33:12;9.10;;;4.22;;
12597;SDS011;6364;53.590;9.956;2023-05-19T06:35:37;14.20;;;4.85;;
12597;SDS011;6364;53.590;9.956;2023-05-19T06:38:03;15.07;;;4.20;;
12597;SDS011;6364;53.590;9.956;2023-05-19T06:40:28;13.23;;;4.15;;
12597;SDS011;6364;53.590;9.956;2023-05-19T06:42:53;13.13;;;3.90;;
12597;SDS011;6364;53.590;9.956;2023-05-19T06:45:19;11.82;;;4.43;;
12597;SDS011;6364;53.590;9.956;2023-05-19T06:47:46;12.57;;;4.00;;
12597;SDS011;6364;53.590;9.956;2023-05-19T06:50:12;13.50;;;3.55;;
12597;SDS011;6364;53.590;9.956;2023-05-19T06:52:37;13.63;;;3.58;;
12597;SDS011;6364;53.590;9.956;2023-05-19T06:55:03;12.75;;;3.10;;
12597;SDS011;6364;53.590;9.956;2023-05-19T06:57:28;13.27;;;3.40;;
12597;SDS011;6364;53.590;9.956;2023-05-19T06:59:53;9.85;;;3.08;;
12597;SDS011;6364;53.590;9.956;2023-05-19T07:02:19;11.98;;;3.80;;
12597;SDS011;6364;53.590;9.956;2023-05-19T07:04:44;11.93;;;3.47;;
12597;SDS011;6364;53.590;9.956;2023-05-19T07:07:09;8.52;;;3.42;;
12597;SDS011;6364;53.590;9.956;2023-05-19T07:09:35;10.48;;;3.20;;
12597;SDS011;6364;53.590;9.956;2023-05-19T07:12:00;10.27;;;2.95;;
12597;SDS011;6364;53.590;9.956;2023-05-19T07:14:26;12.15;;;4.00;;
12597;SDS011;6364;53.590;9.956;2023-05-19T07:16:51;12.00;;;3.60;;
12597;SDS011;6364;53.590;9.956;2023-05-19T07:19:16;11.70;;;3.08;;
12597;SDS011;6364;53.590;9.956;2023-05-19T07:21:43;11.75;;;3.83;;
12597;SDS011;6364;53.590;9.956;2023-05-19T07:24:09;8.73;;;2.97;;
12597;SDS011;6364;53.590;9.956;2023-05-19T07:26:34;9.10;;;3.05;;
12597;SDS011;6364;53.590;9.956;2023-05-19T07:29:00;12.57;;;3.45;;
12597;SDS011;6364;53.590;9.956;2023-05-19T07:31:25;12.38;;;3.80;;
12597;SDS011;6364;53.590;9.956;2023-05-19T07:33:50;11.57;;;3.00;;
12597;SDS011;6364;53.590;9.956;2023-05-19T07:36:16;8.10;;;2.75;;
12597;SDS011;6364;53.590;9.956;2023-05-19T07:38:41;7.95;;;2.95;;
12597;SDS011;6364;53.590;9.956;2023-05-19T07:41:06;12.40;;;2.85;;
12597;SDS011;6364;53.590;9.956;2023-05-19T07:43:32;11.18;;;2.90;;
12597;SDS011;6364;53.590;9.956;2023-05-19T07:45:58;8.48;;;3.45;;
12597;SDS011;6364;53.590;9.956;2023-05-19T07:48:23;16.05;;;3.30;;
12597;SDS011;6364;53.590;9.956;2023-05-19T07:50:49;6.30;;;2.90;;
12597;SDS011;6364;53.590;9.956;2023-05-19T07:53:16;11.38;;;2.88;;
12597;SDS011;6364;53.590;9.956;2023-05-19T07:55:41;10.73;;;2.95;;
12597;SDS011;6364;53.590;9.956;2023-05-19T07:58:06;10.52;;;2.95;;
12597;SDS011;6364;53.590;9.956;2023-05-19T08:00:32;9.13;;;2.83;;
12597;SDS011;6364;53.590;9.956;2023-05-19T08:02:57;9.07;;;2.90;;
12597;SDS011;6364;53.590;9.956;2023-05-19T08:05:22;11.65;;;3.38;;
12597;SDS011;6364;53.590;9.956;2023-05-19T08:07:49;8.60;;;3.00;;
12597;SDS011;6364;53.590;9.956;2023-05-19T08:10:14;10.20;;;3.17;;
12597;SDS011;6364;53.590;9.956;2023-05-19T08:12:40;10.13;;;3.15;;
12597;SDS011;6364;53.590;9.956;2023-05-19T08:15:05;13.30;;;3.03;;
12597;SDS011;6364;53.590;9.956;2023-05-19T08:17:31;9.32;;;2.83;;
12597;SDS011;6364;53.590;9.956;2023-05-19T08:19:57;10.55;;;3.25;;
12597;SDS011;6364;53.590;9.956;2023-05-19T08:22:22;16.33;;;3.05;;
12597;SDS011;6364;53.590;9.956;2023-05-19T08:24:47;12.27;;;2.80;;
12597;SDS011;6364;53.590;9.956;2023-05-19T08:27:15;8.18;;;2.65;;
12597;SDS011;6364;53.590;9.956;2023-05-19T08:29:41;9.73;;;3.08;;
12597;SDS011;6364;53.590;9.956;2023-05-19T08:32:06;10.07;;;3.22;;
12597;SDS011;6364;53.590;9.956;2023-05-19T08:34:32;8.25;;;2.90;;
12597;SDS011;6364;53.590;9.956;2023-05-19T08:36:57;13.88;;;2.80;;
12597;SDS011;6364;53.590;9.956;2023-05-19T08:39:23;10.02;;;2.40;;
12597;SDS011;6364;53.590;9.956;2023-05-19T08:41:53;7.20;;;2.53;;
12597;SDS011;6364;53.590;9.956;2023-05-19T08:44:19;11.23;;;2.83;;
12597;SDS011;6364;53.590;9.956;2023-05-19T08:46:45;10.48;;;3.15;;
12597;SDS011;6364;53.590;9.956;2023-05-19T08:49:12;11.32;;;2.63;;
12597;SDS011;6364;53.590;9.956;2023-05-19T08:51:45;9.90;;;2.78;;
12597;SDS011;6364;53.590;9.956;2023-05-19T08:54:14;9.82;;;2.30;;
12597;SDS011;6364;53.590;9.956;2023-05-19T08:56:40;12.15;;;2.92;;
12597;SDS011;6364;53.590;9.956;2023-05-19T08:59:07;8.05;;;2.42;;
12597;SDS011;6364;53.590;9.956;2023-05-19T09:01:32;9.70;;;2.80;;
12597;SDS011;6364;53.590;9.956;2023-05-19T09:03:58;13.35;;;2.83;;
12597;SDS011;6364;53.590;9.956;2023-05-19T09:06:23;7.25;;;2.50;;
12597;SDS011;6364;53.590;9.956;2023-05-19T09:08:49;7.15;;;2.38;;
12597;SDS011;6364;53.590;9.956;2023-05-19T09:11:14;8.40;;;2.40;;
12597;SDS011;6364;53.590;9.956;2023-05-19T09:13:40;8.00;;;1.95;;
12597;SDS011;6364;53.590;9.956;2023-05-19T09:16:06;7.72;;;2.42;;
12597;SDS011;6364;53.590;9.956;2023-05-19T09:18:31;6.35;;;2.38;;
12597;SDS011;6364;53.590;9.956;2023-05-19T09:20:58;7.57;;;2.58;;
12597;SDS011;6364;53.590;9.956;2023-05-19T09:23:28;10.50;;;2.65;;
12597;SDS011;6364;53.590;9.956;2023-05-19T09:25:55;12.00;;;2.42;;
12597;SDS011;6364;53.590;9.956;2023-05-19T09:28:24;9.07;;;2.22;;
12597;SDS011;6364;53.590;9.956;2023-05-19T09:31:04;8.82;;;2.45;;
12597;SDS011;6364;53.590;9.956;2023-05-19T09:33:34;8.98;;;2.42;;
12597;SDS011;6364;53.590;9.956;2023-05-19T09:36:00;8.25;;;2.60;;
12597;SDS011;6364;53.590;9.956;2023-05-19T09:38:27;10.68;;;2.53;;
12597;SDS011;6364;53.590;9.956;2023-05-19T09:40:54;14.65;;;2.70;;
12597;SDS011;6364;53.590;9.956;2023-05-19T09:43:21;9.50;;;2.47;;
12597;SDS011;6364;53.590;9.956;2023-05-19T09:45:46;9.57;;;2.70;;
12597;SDS011;6364;53.590;9.956;2023-05-19T09:48:13;9.85;;;2.78;;
12597;SDS011;6364;53.590;9.956;2023-05-19T09:50:41;6.70;;;2.58;;
12597;SDS011;6364;53.590;9.956;2023-05-19T09:53:06;7.75;;;2.72;;
12597;SDS011;6364;53.590;9.956;2023-05-19T09:55:32;8.60;;;2.55;;
12597;SDS011;6364;53.590;9.956;2023-05-19T09:57:58;10.55;;;2.90;;
12597;SDS011;6364;53.590;9.956;2023-05-19T10:00:28;10.77;;;2.53;;
12597;SDS011;6364;53.590;9.956;2023-05-19T10:02:55;10.93;;;3.10;;
12597;SDS011;6364;53.590;9.956;2023-05-19T10:05:21;7.80;;;2.67;;
12597;SDS011;6364;53.590;9.956;2023-05-19T10:07:50;17.20;;;3.05;;
12597;SDS011;6364;53.590;9.956;2023-05-19T10:10:16;9.93;;;2.72;;
12597;SDS011;6364;53.590;9.956;2023-05-19T10:12:44;9.38;;;2.35;;
12597;SDS011;6364;53.590;9.956;2023-05-19T10:15:10;14.57;;;3.03;;
12597;SDS011;6364;53.590;9.956;2023-05-19T10:17:38;9.77;;;2.90;;
12597;SDS011;6364;53.590;9.956;2023-05-19T10:20:07;7.97;;;2.55;;
12597;SDS011;6364;53.590;9.956;2023-05-19T10:22:34;10.18;;;3.13;;
12597;SDS011;6364;53.590;9.956;2023-05-19T10:24:59;9.50;;;2.50;;
12597;SDS011;6364;53.590;9.956;2023-05-19T10:27:25;7.45;;;2.17;;
12597;SDS011;6364;53.590;9.956;2023-05-19T10:29:52;7.40;;;1.90;;
12597;SDS011;6364;53.590;9.956;2023-05-19T10:32:20;8.65;;;2.13;;
12597;SDS011;6364;53.590;9.956;2023-05-19T10:37:30;15.77;;;3.50;;
12597;SDS011;6364;53.590;9.956;2023-05-19T10:40:08;10.18;;;2.55;;
12597;SDS011;6364;53.590;9.956;2023-05-19T10:42:44;6.28;;;2.28;;
12597;SDS011;6364;53.590;9.956;2023-05-19T10:45:21;9.75;;;2.08;;
12597;SDS011;6364;53.590;9.956;2023-05-19T10:47:51;6.85;;;2.10;;
12597;SDS011;6364;53.590;9.956;2023-05-19T10:50:16;12.23;;;2.35;;
12597;SDS011;6364;53.590;9.956;2023-05-19T10:52:41;9.85;;;2.55;;
12597;SDS011;6364;53.590;9.956;2023-05-19T10:55:08;11.63;;;2.33;;
12597;SDS011;6364;53.590;9.956;2023-05-19T10:57:39;9.35;;;2.38;;
12597;SDS011;6364;53.590;9.956;2023-05-19T11:00:27;7.75;;;2.42;;
12597;SDS011;6364;53.590;9.956;2023-05-19T11:03:14;12.95;;;2.20;;
12597;SDS011;6364;53.590;9.956;2023-05-19T11:05:40;9.73;;;2.90;;
12597;SDS011;6364;53.590;9.956;2023-05-19T11:08:09;6.63;;;2.15;;
12597;SDS011;6364;53.590;9.956;2023-05-19T11:10:36;6.30;;;2.28;;
12597;SDS011;6364;53.590;9.956;2023-05-19T11:13:01;6.90;;;2.47;;
12597;SDS011;6364;53.590;9.956;2023-05-19T11:15:28;5.50;;;2.08;;
12597;SDS011;6364;53.590;9.956;2023-05-19T11:17:53;8.48;;;2.92;;
12597;SDS011;6364;53.590;9.956;2023-05-19T11:20:24;7.18;;;2.28;;
12597;SDS011;6364;53.590;9.956;2023-05-19T11:25:46;9.18;;;2.30;;
12597;SDS011;6364;53.590;9.956;2023-05-19T11:28:17;13.15;;;2.97;;
12597;SDS011;6364;53.590;9.956;2023-05-19T11:30:49;7.13;;;1.98;;
12597;SDS011;6364;53.590;9.956;2023-05-19T11:33:15;8.18;;;2.70;;
12597;SDS011;6364;53.590;9.956;2023-05-19T11:35:43;12.05;;;2.50;;
12597;SDS011;6364;53.590;9.956;2023-05-19T11:38:10;8.05;;;2.65;;
12597;SDS011;6364;53.590;9.956;2023-05-19T11:40:35;5.95;;;2.42;;
12597;SDS011;6364;53.590;9.956;2023-05-19T11:43:02;10.98;;;2.65;;
12597;SDS011;6364;53.590;9.956;2023-05-19T11:45:28;6.95;;;2.28;;
12597;SDS011;6364;53.590;9.956;2023-05-19T11:47:55;8.30;;;2.30;;
12597;SDS011;6364;53.590;9.956;2023-05-19T11:50:22;8.25;;;2.25;;
12597;SDS011;6364;53.590;9.956;2023-05-19T11:52:49;7.55;;;2.08;;
12597;SDS011;6364;53.590;9.956;2023-05-19T11:55:15;8.20;;;2.30;;
12597;SDS011;6364;53.590;9.956;2023-05-19T11:57:49;7.32;;;2.30;;
12597;SDS011;6364;53.590;9.956;2023-05-19T12:00:36;10.90;;;2.40;;
12597;SDS011;6364;53.590;9.956;2023-05-19T12:03:03;6.57;;;2.13;;
12597;SDS011;6364;53.590;9.956;2023-05-19T12:05:29;10.77;;;2.58;;
12597;SDS011;6364;53.590;9.956;2023-05-19T12:07:55;5.28;;;2.03;;
12597;SDS011;6364;53.590;9.956;2023-05-19T12:10:27;7.50;;;2.30;;
12597;SDS011;6364;53.590;9.956;2023-05-19T12:12:55;8.98;;;2.40;;
12597;SDS011;6364;53.590;9.956;2023-05-19T12:15:21;6.07;;;2.17;;
12597;SDS011;6364;53.590;9.956;2023-05-19T12:17:54;9.23;;;2.50;;
12597;SDS011;6364;53.590;9.956;2023-05-19T12:20:20;7.15;;;2.50;;
12597;SDS011;6364;53.590;9.956;2023-05-19T12:22:47;5.63;;;2.30;;
12597;SDS011;6364;53.590;9.956;2023-05-19T12:25:13;8.75;;;2.42;;
12597;SDS011;6364;53.590;9.956;2023-05-19T12:27:41;7.95;;;2.28;;
12597;SDS011;6364;53.590;9.956;2023-05-19T12:30:07;4.97;;;1.95;;
12597;SDS011;6364;53.590;9.956;2023-05-19T12:32:33;4.82;;;2.17;;
12597;SDS011;6364;53.590;9.956;2023-05-19T12:35:00;6.30;;;1.98;;
12597;SDS011;6364;53.590;9.956;2023-05-19T12:37:27;4.60;;;2.10;;
12597;SDS011;6364;53.590;9.956;2023-05-19T12:39:54;5.35;;;2.08;;
12597;SDS011;6364;53.590;9.956;2023-05-19T12:42:20;5.82;;;2.17;;
12597;SDS011;6364;53.590;9.956;2023-05-19T12:44:47;6.72;;;2.10;;
12597;SDS011;6364;53.590;9.956;2023-05-19T12:47:16;5.90;;;2.33;;
12597;SDS011;6364;53.590;9.956;2023-05-19T12:52:24;8.60;;;2.40;;
12597;SDS011;6364;53.590;9.956;2023-05-19T12:55:06;7.93;;;2.05;;
12597;SDS011;6364;53.590;9.956;2023-05-19T12:57:33;3.60;;;1.85;;
12597;SDS011;6364;53.590;9.956;2023-05-19T13:00:00;6.72;;;2.17;;
12597;SDS011;6364;53.590;9.956;2023-05-19T13:02:32;8.57;;;1.95;;
12597;SDS011;6364;53.590;9.956;2023-05-19T13:04:58;6.25;;;2.10;;
12597;SDS011;6364;53.590;9.956;2023-05-19T13:07:23;4.97;;;1.75;;
12597;SDS011;6364;53.590;9.956;2023-05-19T13:09:48;5.35;;;2.10;;
12597;SDS011;6364;53.590;9.956;2023-05-19T13:12:14;5.90;;;2.50;;
12597;SDS011;6364;53.590;9.956;2023-05-19T13:14:39;5.70;;;1.80;;
12597;SDS011;6364;53.590;9.956;2023-05-19T13:17:06;5.32;;;2.28;;
12597;SDS011;6364;53.590;9.956;2023-05-19T13:19:31;7.45;;;2.40;;
12597;SDS011;6364;53.590;9.956;2023-05-19T13:21:57;6.25;;;2.10;;
12597;SDS011;6364;53.590;9.956;2023-05-19T13:24:22;6.53;;;2.22;;
12597;SDS011;6364;53.590;9.956;2023-05-19T13:26:48;5.15;;;2.35;;
12597;SDS011;6364;53.590;9.956;2023-05-19T13:29:13;6.57;;;2.30;;
12597;SDS011;6364;53.590;9.956;2023-05-19T13:31:39;6.20;;;2.35;;
12597;SDS011;6364;53.590;9.956;2023-05-19T13:34:04;7.45;;;2.45;;
12597;SDS011;6364;53.590;9.956;2023-05-19T13:36:29;10.23;;;2.55;;
12597;SDS011;6364;53.590;9.956;2023-05-19T13:38:56;8.25;;;2.13;;
12597;SDS011;6364;53.590;9.956;2023-05-19T13:41:25;6.03;;;2.20;;
12597;SDS011;6364;53.590;9.956;2023-05-19T13:43:51;5.05;;;1.95;;
12597;SDS011;6364;53.590;9.956;2023-05-19T13:46:17;7.05;;;2.53;;
12597;SDS011;6364;53.590;9.956;2023-05-19T13:48:43;9.10;;;2.38;;
12597;SDS011;6364;53.590;9.956;2023-05-19T13:51:08;8.27;;;2.40;;
12597;SDS011;6364;53.590;9.956;2023-05-19T13:53:33;5.55;;;2.25;;
12597;SDS011;6364;53.590;9.956;2023-05-19T13:55:59;10.20;;;2.50;;
12597;SDS011;6364;53.590;9.956;2023-05-19T13:58:24;7.72;;;2.97;;
12597;SDS011;6364;53.590;9.956;2023-05-19T14:00:50;6.45;;;2.10;;
12597;SDS011;6364;53.590;9.956;2023-05-19T14:03:18;6.70;;;2.00;;
12597;SDS011;6364;53.590;9.956;2023-05-19T14:05:44;6.75;;;2.00;;
12597;SDS011;6364;53.590;9.956;2023-05-19T14:08:09;3.83;;;1.83;;
12597;SDS011;6364;53.590;9.956;2023-05-19T14:10:35;4.10;;;2.10;;
12597;SDS011;6364;53.590;9.956;2023-05-19T14:13:00;12.07;;;2.50;;
12597;SDS011;6364;53.590;9.956;2023-05-19T14:15:26;8.98;;;2.20;;
12597;SDS011;6364;53.590;9.956;2023-05-19T14:17:51;5.32;;;2.10;;
12597;SDS011;6364;53.590;9.956;2023-05-19T14:20:19;4.25;;;1.55;;
12597;SDS011;6364;53.590;9.956;2023-05-19T14:22:44;3.80;;;2.10;;
12597;SDS011;6364;53.590;9.956;2023-05-19T14:25:10;5.40;;;2.20;;
12597;SDS011;6364;53.590;9.956;2023-05-19T14:27:35;5.63;;;2.53;;
12597;SDS011;6364;53.590;9.956;2023-05-19T14:30:00;6.25;;;2.22;;
12597;SDS011;6364;53.590;9.956;2023-05-19T14:32:26;5.80;;;2.30;;
12597;SDS011;6364;53.590;9.956;2023-05-19T14:34:51;3.45;;;1.90;;
12597;SDS011;6364;53.590;9.956;2023-05-19T14:37:17;8.30;;;2.25;;
12597;SDS011;6364;53.590;9.956;2023-05-19T14:39:43;4.30;;;2.10;;
12597;SDS011;6364;53.590;9.956;2023-05-19T14:42:08;6.30;;;2.35;;
12597;SDS011;6364;53.590;9.956;2023-05-19T14:44:33;5.45;;;1.95;;
12597;SDS011;6364;53.590;9.956;2023-05-19T14:46:59;5.25;;;1.83;;
12597;SDS011;6364;53.590;9.956;2023-05-19T14:49:25;4.57;;;2.45;;
12597;SDS011;6364;53.590;9.956;2023-05-19T14:51:50;5.72;;;1.92;;
12597;SDS011;6364;53.590;9.956;2023-05-19T14:54:16;3.47;;;1.77;;
12597;SDS011;6364;53.590;9.956;2023-05-19T14:56:41;5.53;;;2.08;;
12597;SDS011;6364;53.590;9.956;2023-05-19T14:59:06;4.60;;;2.05;;
12597;SDS011;6364;53.590;9.956;2023-05-19T15:01:32;7.03;;;2.30;;
12597;SDS011;6364;53.590;9.956;2023-05-19T15:03:57;4.55;;;1.80;;
12597;SDS011;6364;53.590;9.956;2023-05-19T15:06:22;7.30;;;1.90;;
12597;SDS011;6364;53.590;9.956;2023-05-19T15:08:48;6.13;;;1.80;;
12597;SDS011;6364;53.590;9.956;2023-05-19T15:11:13;5.80;;;2.03;;